Date,TemperatureHighF,TemperatureAvgF,TemperatureLowF,DewpointHighF,DewpointAvgF,DewpointLowF,HumidityHigh,HumidityAvg,HumidityLow,PressureMaxIn,PressureMinIn,WindSpeedMaxMPH,WindSpeedAvgMPH,GustSpeedMaxMPH,PrecipitationSumIn
2013-1-1,29.1,23.2,14.7,19.2,13.5,0.9,77,66,50,30.16,30.05,17,7,17,0.00
2013-1-2,28.0,16.9,7.7,25.9,3.7,-2.1,97,56,39,30.20,30.11,10,3,10,0.00
2013-1-3,32.2,25.7,16.5,23.7,15.7,4.8,78,66,54,30.24,30.09,20,5,20,0.00
2013-1-4,34.3,23.8,13.8,21.8,15.0,6.4,75,69,52,30.23,30.14,16,4,16,0.00
2013-1-5,38.5,29.2,18.5,31.9,23.6,13.1,94,80,56,30.25,29.98,10,3,10,0.00
2013-1-6,35.6,30.5,21.2,31.2,23.0,15.9,87,74,64,30.32,29.91,25,6,25,0.02
2013-1-7,38.8,26.8,15.6,24.7,18.9,11.1,86,73,45,30.34,30.12,11,4,11,0.00
2013-1-8,43.5,33.1,24.3,30.6,25.3,19.2,85,73,56,30.18,30.06,7,3,7,0.00
2013-1-9,50.9,40.5,27.3,35.1,25.0,12.0,81,57,25,30.49,29.91,32,7,32,0.00
2013-1-10,42.6,34.6,23.7,41.3,27.0,16.3,99,75,55,30.49,29.92,11,3,11,0.43
2013-1-11,53.2,49.9,41.5,52.2,48.3,41.3,99,94,84,29.92,29.69,17,4,17,0.22
2013-1-12,58.3,47.9,34.5,49.3,41.7,31.1,90,79,60,29.95,29.77,21,6,21,0.20
2013-1-13,35.4,28.3,15.1,34.1,24.5,5.2,96,86,63,30.22,29.83,17,4,17,0.08
2013-1-14,25.7,16.7,12.0,14.6,8.2,3.7,81,69,55,30.43,30.21,0,0,0,0.00
2013-1-15,32.0,20.2,10.4,21.7,12.9,5.0,85,73,52,30.40,30.09,0,0,0,0.00
2013-1-16,36.9,27.8,15.3,25.9,18.7,11.1,86,70,46,30.09,29.85,17,2,17,0.00
2013-1-17,34.0,28.2,19.8,28.4,14.5,6.2,81,57,38,30.81,30.03,24,8,24,0.02
2013-1-18,42.3,30.0,15.8,27.6,18.8,7.3,80,63,49,30.40,29.96,14,5,14,0.00
2013-1-19,50.7,42.6,34.7,35.8,30.6,13.4,74,63,38,29.97,29.75,37,8,37,0.87
2013-1-20,34.5,20.3,15.4,14.6,-1.1,-4.7,46,38,29,30.26,29.85,34,10,34,0.17
2013-1-21,17.1,11.0,5.2,5.3,-6.8,-18.1,70,45,27,30.23,30.10,23,10,23,0.01
2013-1-22,12.4,6.5,-0.2,-4.9,-12.0,-16.6,49,41,29,30.34,30.22,17,6,18,0.00
2013-1-23,22.5,16.7,9.9,11.0,0.5,-8.1,72,48,32,30.31,30.08,28,6,28,0.00
2013-1-24,23.2,16.8,10.9,11.9,6.0,0.0,78,63,44,30.58,30.23,22,4,22,0.00
2013-1-25,28.6,23.1,17.4,17.5,11.3,4.5,77,60,48,30.36,29.97,21,4,21,0.00
2013-1-26,31.8,22.3,16.9,16.1,11.1,6.5,74,62,47,30.40,30.11,16,4,16,0.00
2013-1-27,35.2,28.4,20.7,33.8,21.1,12.8,95,74,61,30.37,29.95,10,4,10,0.01
2013-1-28,50.4,45.0,35.1,50.1,44.5,33.8,99,98,95,29.95,29.84,11,3,11,0.07
2013-1-29,59.5,56.3,45.3,58.6,55.6,44.3,99,98,90,29.87,29.39,21,6,21,0.83
2013-1-30,53.8,38.3,23.4,52.9,36.1,15.4,99,92,68,29.59,29.18,30,8,30,0.30
2013-1-31,23.4,16.2,6.8,16.4,4.4,-6.6,76,59,47,30.11,29.59,27,14,27,0.09
2013-2-1,17.1,9.8,1.9,9.2,-3.4,-10.0,71,54,45,30.33,30.10,21,7,21,0.00
2013-2-2,26.2,20.0,12.4,20.4,13.5,2.8,86,75,62,30.17,29.96,14,5,16,0.00
2013-2-3,24.8,17.4,9.9,15.4,6.6,-2.8,79,62,47,30.04,29.93,21,6,21,0.00
2013-2-4,30.7,25.1,20.8,22.6,18.9,15.4,85,77,66,30.03,29.82,14,3,14,0.00
2013-2-5,35.1,27.3,16.2,28.8,21.2,11.7,87,78,62,30.05,28.53,17,5,17,0.01
2013-2-6,41.4,32.3,22.5,25.9,20.8,13.0,75,63,46,30.23,30.05,11,3,11,0.00
2013-2-7,48.6,36.4,29.5,37.4,31.0,25.1,98,81,57,30.12,29.81,20,3,20,0.27
2013-2-8,34.3,30.3,28.6,32.9,26.7,23.8,98,87,67,30.35,29.85,27,12,27,0.15
2013-2-9,40.5,32.7,28.2,27.7,24.3,20.7,85,71,55,30.37,30.10,8,3,8,0.00
2013-2-10,50.2,40.3,31.8,48.3,36.1,23.2,99,85,67,30.10,29.55,14,5,14,0.22
2013-2-11,48.6,35.4,30.4,42.0,24.5,19.7,78,64,58,30.01,29.56,34,12,34,0.53
2013-2-12,33.4,28.0,19.9,22.2,19.0,15.9,87,69,63,30.09,29.92,24,5,24,0.00
2013-2-13,50.2,32.6,19.8,31.6,25.3,16.6,92,76,47,29.93,29.71,15,2,15,0.00
2013-2-14,44.1,36.9,32.2,34.3,27.2,17.7,85,69,47,29.96,29.68,24,7,24,0.00
2013-2-15,32.4,28.4,23.5,26.7,15.8,5.2,90,60,37,30.15,29.95,21,6,21,0.00
2013-2-16,24.3,18.7,14.4,17.7,2.9,-3.3,76,50,35,30.14,30.08,23,9,23,0.00
2013-2-17,35.1,21.9,10.2,10.8,1.8,-4.3,59,42,24,30.19,30.04,12,4,12,0.00
2013-2-18,55.9,40.5,25.5,45.6,30.1,10.4,97,67,50,30.05,29.44,27,7,27,0.40
2013-2-19,34.5,18.5,13.6,31.7,7.8,0.5,90,63,54,30.12,29.54,24,6,24,0.78
2013-2-20,25.7,17.9,10.0,15.1,5.6,-3.6,68,58,43,30.31,30.12,20,8,20,0.00
2013-2-21,28.2,26.2,23.5,19.9,16.4,14.0,84,66,58,30.33,29.98,24,7,24,0.01
2013-2-22,35.1,29.1,23.2,32.7,24.5,19.3,91,83,68,29.99,29.82,19,5,19,0.02
2013-2-23,33.6,27.6,24.3,20.4,17.1,14.6,74,65,49,29.95,29.90,16,4,16,0.01
2013-2-24,43.7,28.1,17.1,21.9,16.8,10.5,80,64,37,30.13,29.95,10,2,10,0.04
2013-2-25,46.8,33.5,20.7,29.4,23.1,16.8,89,67,44,30.17,29.94,19,4,19,0.01
2013-2-26,35.2,33.8,32.9,32.3,27.8,20.8,96,80,56,29.94,29.47,30,9,30,0.51
2013-2-27,37.4,33.9,32.9,35.3,32.4,31.2,98,94,85,29.64,29.47,9,1,9,0.37
2013-2-28,36.7,33.3,30.2,33.6,30.6,25.5,98,90,75,30.00,29.63,25,7,25,0.25
2013-3-1,34.7,31.1,28.6,27.9,23.9,19.2,91,75,57,30.12,29.98,21,8,21,0.00
2013-3-2,30.0,27.9,25.9,24.5,17.8,13.5,85,66,56,30.12,30.09,17,8,17,0.01
2013-3-3,34.2,25.6,16.9,18.1,10.6,2.8,74,55,26,30.10,30.05,12,6,12,0.00
2013-3-4,39.6,33.3,14.7,27.4,21.4,9.1,84,63,43,30.11,29.97,14,4,14,0.00
2013-3-5,34.2,31.3,28.4,30.1,28.2,24.9,97,88,69,29.98,29.74,22,8,22,0.00
2013-3-6,35.4,32.0,28.8,30.7,27.2,24.8,96,82,74,30.26,29.90,24,10,24,0.11
2013-3-7,42.4,33.7,23.9,27.3,23.4,18.0,83,67,45,30.39,30.25,11,4,11,0.01
2013-3-8,47.1,32.5,20.5,30.6,21.1,17.4,92,65,37,30.48,30.31,8,2,8,0.00
2013-3-9,44.8,37.5,27.7,34.2,28.1,18.2,77,69,53,30.31,29.87,10,3,10,0.00
2013-3-10,59.9,47.4,39.2,48.7,41.8,32.2,97,82,63,29.88,29.65,7,2,7,0.34
2013-3-11,50.5,41.3,33.3,49.6,39.2,28.9,99,92,82,29.79,29.56,18,4,18,0.06
2013-3-12,39.7,33.0,28.6,30.5,25.2,18.5,95,74,49,29.98,29.78,21,8,21,0.00
2013-3-13,35.6,28.8,24.4,20.2,12.7,7.1,78,52,32,30.30,29.98,25,10,25,0.01
2013-3-14,44.2,32.7,22.8,29.7,19.2,8.8,90,59,33,30.30,30.07,12,3,12,0.00
2013-3-15,50.9,38.1,28.0,41.2,33.8,25.6,99,86,54,30.08,29.71,10,2,10,0.11
2013-3-16,37.4,33.8,30.6,37.1,29.8,20.9,99,86,67,30.09,29.65,25,8,25,0.01
2013-3-17,41.7,32.8,29.8,23.2,19.8,16.2,71,59,46,30.18,29.99,19,7,19,0.00
2013-3-18,36.1,31.5,24.3,33.5,25.8,9.7,91,80,52,29.99,29.59,31,8,31,0.17
2013-3-19,37.2,27.7,19.8,15.1,10.9,6.8,66,50,33,30.05,29.78,30,14,30,0.20
2013-3-20,28.2,23.5,18.3,11.3,3.5,-3.5,72,42,27,30.05,29.99,22,11,22,0.00
2013-3-21,36.5,24.6,14.4,13.6,5.9,-1.2,70,45,28,30.02,29.96,20,7,20,0.00
2013-3-22,47.5,30.4,16.5,24.3,12.5,7.9,81,51,23,30.05,29.97,15,3,15,0.00
2013-3-23,43.7,32.9,23.9,24.1,20.3,15.9,80,61,40,30.11,29.98,17,5,17,0.00
2013-3-24,37.9,33.0,28.9,29.9,22.5,18.7,97,66,47,30.00,29.59,28,12,28,0.00
2013-3-25,38.5,33.5,28.6,28.8,26.5,23.4,97,76,60,30.02,29.63,30,15,30,0.05
2013-3-26,44.6,36.5,31.5,30.8,25.9,19.5,96,67,41,30.22,30.02,17,7,19,0.05
2013-3-27,46.6,37.8,31.1,26.0,21.4,13.4,71,53,30,30.29,30.22,17,5,17,0.00
2013-3-28,55.4,39.3,24.8,22.6,18.4,14.0,76,47,22,30.32,30.25,14,3,14,0.00
2013-3-29,57.2,42.1,27.5,31.4,18.8,12.7,76,43,22,30.30,30.20,17,3,17,0.00
2013-3-30,62.1,46.5,27.3,37.2,26.9,14.2,67,48,30,30.23,29.86,11,2,11,0.00
2013-3-31,62.2,50.6,39.9,45.1,35.5,24.1,97,60,29,29.86,29.69,29,9,29,0.02
2013-4-1,41.2,35.3,27.0,26.3,15.8,9.2,57,45,30,30.14,29.85,22,8,22,0.00
2013-4-2,48.2,35.1,24.3,15.5,9.7,3.0,53,36,22,30.28,30.14,21,6,21,0.00
2013-4-3,47.1,33.7,19.8,25.0,13.7,7.8,80,47,23,30.42,30.28,18,4,18,0.00
2013-4-4,63.7,44.6,23.9,22.3,18.0,13.6,70,38,19,30.32,29.96,13,2,13,0.00
2013-4-5,49.6,41.6,34.3,35.8,25.1,12.7,92,54,27,30.19,29.96,21,10,21,0.00
2013-4-6,73.2,54.1,33.3,45.1,31.8,22.6,69,45,24,30.15,29.65,21,6,21,0.00
2013-4-7,63.3,52.7,41.9,51.2,43.0,37.3,92,71,44,29.95,29.65,26,7,26,0.02
2013-4-8,73.4,55.2,43.9,60.6,47.9,37.8,99,78,52,29.98,29.68,31,7,31,0.33
2013-4-9,82.8,55.9,42.1,62.6,50.2,41.8,99,83,47,29.99,29.80,17,5,17,0.00
2013-4-10,54.5,43.4,40.6,51.6,42.9,40.4,99,98,88,29.94,29.76,22,8,22,0.37
2013-4-11,52.9,47.0,42.3,52.3,46.6,42.0,99,98,97,29.83,29.56,19,5,19,1.22
2013-4-12,47.7,40.6,37.2,42.5,37.4,32.6,99,88,76,29.85,29.59,23,6,23,0.05
2013-4-13,49.5,40.0,36.0,37.0,32.1,27.8,95,74,49,29.99,29.85,23,7,23,0.00
2013-4-14,72.5,53.7,38.8,52.9,42.7,33.0,87,68,46,30.00,29.73,16,4,16,0.00
2013-4-15,71.1,58.2,45.5,59.4,52.9,44.7,99,83,62,29.96,29.74,21,6,21,0.71
2013-4-16,52.9,46.8,42.4,45.2,40.1,34.9,99,78,61,30.24,29.93,15,7,15,0.30
2013-4-17,55.8,48.6,43.9,51.9,44.5,35.6,99,86,72,30.25,29.80,29,7,29,0.78
2013-4-18,69.8,58.7,44.8,67.0,58.0,42.0,99,97,89,29.81,29.47,21,5,21,0.98
2013-4-19,44.6,38.7,33.1,42.1,32.6,29.0,92,79,69,29.90,29.52,27,10,27,0.02
2013-4-20,47.3,38.8,32.0,30.2,21.6,13.2,80,52,30,30.42,29.90,21,8,21,0.00
2013-4-21,58.3,44.2,28.6,32.3,24.3,19.0,73,48,25,30.51,30.34,11,3,11,0.00
2013-4-22,71.4,55.2,36.1,40.2,34.2,27.8,89,50,20,30.34,30.07,11,3,11,0.00
2013-4-23,68.7,51.6,38.1,57.0,45.6,37.9,99,82,55,30.06,29.86,24,6,24,0.51
2013-4-24,53.2,41.7,36.7,37.9,34.5,26.8,99,78,39,30.14,29.88,23,8,23,0.05
2013-4-25,56.7,44.6,34.7,39.4,33.0,25.9,91,66,34,30.33,30.08,24,5,24,0.00
2013-4-26,71.1,52.4,31.8,45.9,39.2,30.4,98,65,36,30.37,30.26,13,3,13,0.00
2013-4-27,74.3,58.6,40.8,52.9,44.1,31.2,99,65,22,30.30,30.00,17,2,17,0.00
2013-4-28,66.7,57.0,49.3,57.6,53.9,49.0,99,90,68,30.00,29.83,14,4,14,0.06
2013-4-29,77.2,62.6,43.7,61.6,52.6,43.0,99,73,45,29.94,29.83,10,3,10,0.00
2013-4-30,88.9,71.9,57.9,62.3,58.0,53.9,88,65,33,29.98,29.85,11,5,11,0.00
2013-5-1,88.3,75.1,57.6,62.0,57.8,53.6,98,60,32,30.14,29.98,11,3,11,0.00
2013-5-2,65.1,51.3,42.1,58.9,46.7,41.2,98,85,68,30.19,30.10,23,10,23,0.00
2013-5-3,42.1,42.1,42.1,41.3,41.3,41.3,97,97,97,30.13,30.13,12,12,17,0.00
2013-5-4,42.1,42.1,42.1,41.3,41.3,41.3,97,97,97,30.13,30.13,12,12,17,0.00
2013-5-5,42.1,42.1,42.1,41.3,41.3,41.3,97,97,97,30.13,30.13,12,12,17,0.00
2013-5-6,73.8,49.1,42.1,46.6,42.0,40.3,97,81,35,30.13,29.90,16,10,17,0.08
2013-5-7,75.6,62.1,46.8,55.7,48.0,44.0,94,63,42,29.99,29.92,14,5,14,0.00
2013-5-8,79.7,67.2,50.5,58.6,51.7,46.6,97,61,33,29.98,29.91,14,4,14,0.00
2013-5-9,83.8,64.6,50.7,62.2,56.6,50.2,99,79,38,29.93,29.77,10,2,10,0.35
2013-5-10,61.2,48.5,41.0,60.6,48.1,40.7,99,99,97,29.91,29.71,24,9,24,0.02
2013-5-11,64.8,48.4,39.7,57.0,43.7,34.4,99,85,56,29.96,29.78,27,5,27,0.06
2013-5-12,56.3,46.6,39.0,37.7,31.8,27.6,91,58,36,30.05,29.96,23,6,23,0.01
2013-5-13,69.6,53.8,33.4,40.1,31.7,22.9,98,49,18,30.12,29.99,14,3,14,0.00
2013-5-14,96.3,72.9,50.9,63.4,50.4,32.1,69,47,25,29.99,29.64,19,4,19,0.00
2013-5-15,84.6,74.6,60.3,63.3,56.2,49.6,84,55,34,29.78,29.62,18,5,18,0.00
2013-5-16,89.1,70.7,52.7,58.2,49.5,40.0,99,54,22,29.92,29.77,14,3,14,0.00
2013-5-17,81.7,68.4,57.0,65.9,57.5,45.6,99,70,47,29.99,29.91,14,2,14,0.09
2013-5-18,86.2,70.8,57.2,66.6,61.6,50.9,99,75,48,30.02,29.91,13,1,13,0.00
2013-5-19,93.2,77.3,60.6,70.1,65.2,60.2,99,69,42,29.93,29.74,14,2,14,0.00
2013-5-20,92.5,80.3,70.2,72.2,67.3,60.1,98,68,36,29.80,29.69,16,4,16,0.01
2013-5-21,86.5,73.3,63.5,71.3,66.8,62.7,99,82,54,29.77,29.64,18,4,18,0.70
2013-5-22,80.1,70.1,62.2,71.1,64.6,54.1,99,84,46,29.71,29.60,16,4,16,0.09
2013-5-23,72.1,48.0,41.0,58.9,46.0,37.4,99,93,72,30.19,29.70,29,11,29,0.44
2013-5-24,57.0,48.0,39.0,44.3,39.2,31.0,99,74,40,30.35,30.18,17,7,17,0.00
2013-5-25,62.6,49.6,37.2,51.9,43.9,36.2,99,82,62,30.33,30.21,9,3,9,0.00
2013-5-26,78.1,58.8,41.9,56.4,49.3,41.6,99,75,39,30.25,30.08,9,2,9,0.05
2013-5-27,65.8,58.7,53.8,63.0,58.1,53.0,99,98,87,30.09,29.81,12,3,12,0.38
2013-5-28,83.3,70.2,62.8,73.6,67.3,61.9,99,91,67,29.86,29.72,34,3,34,0.54
2013-5-29,90.9,75.5,63.1,74.3,67.7,62.3,99,79,52,29.92,29.78,14,3,14,0.07
2013-5-30,86.4,73.7,65.8,73.5,67.8,63.9,99,83,62,29.93,29.89,13,3,13,0.00
2013-5-31,79.3,70.1,65.5,71.1,67.4,64.6,99,92,73,29.89,29.72,6,3,6,0.17
2013-6-1,81.9,71.0,61.2,69.5,65.6,60.4,99,84,62,29.76,29.63,19,4,19,0.21
2013-6-2,64.8,55.1,43.2,62.7,52.3,42.6,99,91,74,29.99,29.68,17,7,17,0.01
2013-6-3,69.4,56.9,39.6,51.4,45.3,39.3,99,69,39,30.06,29.99,57,4,57,0.00
2013-6-4,82.0,63.0,44.2,54.0,48.9,43.7,99,65,29,30.11,30.03,11,2,11,0.00
2013-6-5,86.0,69.8,55.2,59.5,53.4,47.3,90,59,33,30.05,29.86,14,2,14,0.00
2013-6-6,71.6,62.7,53.4,60.0,52.7,45.7,94,71,53,29.87,29.80,17,6,17,0.04
2013-6-7,70.2,60.9,52.2,59.5,52.3,40.6,99,75,45,29.88,29.82,17,6,17,0.00
2013-6-8,82.8,66.0,48.9,58.9,52.6,46.5,99,65,41,29.95,29.85,13,3,13,0.00
2013-6-9,87.6,73.1,57.4,68.7,60.0,51.5,96,67,35,29.96,29.78,11,2,11,0.00
2013-6-10,79.9,69.7,60.8,71.3,66.2,60.2,99,89,66,29.83,29.70,14,4,14,0.30
2013-6-11,90.3,73.0,57.7,74.8,65.4,57.5,99,80,46,29.89,29.77,12,2,12,0.08
2013-6-12,91.4,75.7,64.9,78.1,71.6,64.5,99,88,57,29.87,29.56,20,3,20,2.37
2013-6-13,71.6,63.4,55.8,64.9,59.8,55.2,99,89,65,29.99,29.55,18,8,18,0.07
2013-6-14,75.6,65.3,54.3,64.9,58.7,53.5,99,81,60,30.06,29.95,14,5,14,0.00
2013-6-15,82.0,68.0,56.7,71.3,65.3,56.4,99,92,64,30.03,29.85,8,1,8,0.14
2013-6-16,86.5,75.2,66.4,73.0,68.7,66.1,99,82,55,29.88,29.82,16,4,16,0.07
2013-6-17,92.3,79.5,63.7,71.6,64.3,55.8,99,64,32,29.90,29.81,20,2,20,0.00
2013-6-18,72.9,65.1,57.7,65.8,60.6,55.7,99,86,69,30.00,29.85,17,8,17,0.00
2013-6-19,81.7,69.4,56.8,59.5,53.6,49.5,96,59,37,30.09,29.99,12,4,12,0.00
2013-6-20,92.1,76.6,59.4,69.7,62.8,51.1,96,65,44,30.12,30.04,10,1,10,0.00
2013-6-21,90.9,77.6,64.9,73.7,68.1,64.4,99,75,51,30.12,30.05,21,2,21,0.09
2013-6-22,88.9,78.8,67.5,77.9,72.7,66.8,99,82,67,30.05,29.93,11,2,11,0.00
2013-6-23,90.9,77.1,65.3,75.7,70.2,65.0,99,81,58,30.02,29.92,12,2,12,0.00
2013-6-24,90.0,75.7,68.0,76.8,70.6,67.7,99,85,62,30.04,29.91,14,2,14,0.05
2013-6-26,85.6,77.0,66.2,77.8,73.4,65.9,99,89,74,29.80,29.67,11,2,11,1.59
2013-6-27,92.8,77.0,66.7,75.7,70.4,66.5,99,82,47,29.74,29.64,34,4,34,0.30
2013-6-28,85.1,73.4,65.5,72.5,66.2,60.0,99,80,47,29.66,29.55,26,4,26,0.13
2013-6-29,76.5,66.9,64.0,68.7,65.4,63.2,99,95,75,29.68,29.54,17,6,17,0.01
2013-6-30,75.0,69.1,64.8,66.8,63.1,58.4,99,82,62,29.90,29.68,18,7,18,0.00
2013-7-1,77.4,69.7,60.1,63.3,55.5,41.0,97,62,45,29.99,29.89,22,8,22,0.00
2013-7-2,67.8,63.1,61.3,63.4,59.8,54.3,98,90,63,30.00,29.95,13,6,13,0.08
2013-7-3,80.1,68.0,61.3,71.8,65.1,60.8,99,91,66,30.03,29.94,11,2,11,0.26
2013-7-4,86.4,72.3,56.3,71.0,64.8,56.0,99,80,54,30.08,30.01,7,1,7,0.00
2013-7-5,68.2,68.2,68.2,66.4,66.4,66.4,94,94,94,30.02,30.02,0,0,0,0.00
2013-7-6,68.2,68.2,68.2,66.4,66.4,66.4,94,94,94,30.02,30.02,0,0,0,0.00
2013-7-7,68.2,68.2,68.2,66.4,66.4,66.4,94,94,94,30.02,30.02,0,0,0,0.00
2013-7-8,90.3,72.6,68.2,77.1,69.0,66.4,95,89,62,30.02,29.91,11,1,12,0.46
2013-7-9,88.2,80.0,73.2,80.2,76.9,72.4,99,91,74,29.96,29.85,21,2,21,0.08
2013-7-10,82.6,78.0,61.2,79.4,75.3,60.4,99,91,77,29.96,29.80,5,1,5,0.52
2013-7-11,80.1,70.3,58.8,68.2,59.7,54.6,99,73,44,30.05,29.95,16,4,16,0.00
2013-7-12,85.8,72.8,55.6,67.6,61.9,55.3,99,72,44,30.09,30.03,8,3,8,0.00
2013-7-13,90.5,76.2,59.0,69.3,64.7,58.7,99,71,45,30.12,30.06,9,2,9,0.00
2013-7-14,95.7,80.5,66.9,75.7,71.2,66.6,99,76,47,30.16,30.10,11,2,11,0.00
2013-7-15,97.9,85.1,72.3,80.2,76.2,71.4,99,77,51,30.23,30.16,4,1,4,0.00
2013-7-16,99.0,88.4,71.2,79.1,75.7,70.6,99,68,48,30.28,30.20,8,2,8,0.00
2013-7-17,99.0,85.5,70.9,79.3,74.5,70.3,99,72,46,30.28,30.13,8,2,8,0.00
2013-7-18,98.6,86.5,72.5,80.0,75.8,71.6,99,73,46,30.15,29.94,11,2,11,0.00
2013-7-19,96.6,86.7,75.4,78.0,75.1,70.7,99,71,45,29.94,29.74,17,5,20,0.00
2013-7-20,88.5,81.8,72.1,76.2,68.4,57.1,86,66,40,29.90,29.75,13,5,13,0.00
2013-7-21,94.3,79.9,66.7,73.0,69.8,65.5,99,74,44,29.93,29.81,14,2,14,0.00
2013-7-22,94.8,79.5,68.9,73.1,70.2,66.8,99,76,44,29.84,29.71,9,2,9,0.00
2013-7-23,81.9,72.1,63.9,73.2,64.0,51.9,97,76,63,29.91,29.65,22,8,22,0.00
2013-7-24,73.0,64.7,55.0,56.4,51.9,46.7,99,65,43,30.00,29.89,18,7,18,0.00
2013-7-25,90.7,70.0,52.9,62.0,57.1,51.2,99,68,33,30.07,29.99,10,1,10,0.00
2013-7-26,80.8,67.6,58.6,67.2,63.1,58.2,99,87,57,30.02,29.84,12,2,12,0.00
2013-7-27,72.5,64.6,55.6,66.3,57.8,48.2,99,80,55,29.87,29.80,17,6,17,0.01
2013-7-28,72.9,60.3,50.2,57.7,51.8,48.6,99,76,44,29.98,29.83,16,4,16,0.04
2013-7-29,80.1,67.4,55.0,61.2,56.9,51.8,94,70,48,30.14,29.97,14,4,14,0.00
2013-7-30,84.6,68.1,54.7,68.0,62.1,53.9,99,83,49,30.15,30.03,6,1,6,0.00
2013-7-31,70.3,68.6,65.3,69.6,68.0,64.0,99,98,94,30.03,29.96,4,0,4,0.02
2013-8-1,70.2,70.2,70.2,69.6,69.6,69.6,98,98,98,29.96,29.96,0,0,2,0.02
2013-8-2,86.9,72.7,63.3,75.8,69.8,62.5,99,92,60,29.96,29.83,19,2,19,1.48
2013-8-3,78.4,70.6,58.3,71.8,62.6,51.2,99,79,40,30.10,29.94,17,4,17,0.01
2013-8-4,84.2,67.9,55.9,67.9,59.4,55.7,99,76,52,30.18,30.10,14,3,14,0.00
2013-8-5,81.9,67.7,55.9,70.2,62.2,55.7,99,84,57,30.13,29.91,9,1,9,0.01
2013-8-6,88.7,72.6,63.5,74.9,69.0,62.5,99,90,59,29.92,29.86,8,1,8,0.00
2013-8-7,90.5,76.7,67.1,82.5,73.0,66.8,99,89,64,29.93,29.81,17,2,17,0.50
2013-8-8,82.4,71.0,64.6,69.0,65.2,59.3,99,83,60,30.00,29.93,14,5,14,0.00
2013-8-9,88.0,73.9,60.3,70.0,64.3,56.7,99,75,44,30.03,29.96,10,2,10,0.00
2013-8-10,83.5,73.7,62.2,71.5,63.4,56.1,99,73,43,30.12,30.02,14,3,14,0.00
2013-8-11,89.1,72.9,57.2,68.9,61.7,53.5,99,71,39,30.13,30.04,8,1,8,0.00
2013-8-12,88.2,74.7,63.3,72.4,67.6,62.5,99,81,52,30.06,29.85,18,2,18,0.15
2013-8-13,70.2,64.4,54.0,68.1,57.8,49.9,99,81,53,30.13,29.91,21,7,21,0.01
2013-8-14,72.9,61.6,50.7,61.4,52.6,49.3,99,75,45,30.21,30.12,15,3,15,0.00
2013-8-15,80.1,64.9,49.1,61.4,55.9,48.8,99,76,43,30.18,30.10,9,1,9,0.00
2013-8-16,83.8,70.5,56.8,66.5,58.5,51.4,99,70,38,30.19,30.11,11,2,11,0.00
2013-8-17,83.8,70.0,55.6,64.8,59.4,54.1,99,73,42,30.23,30.16,12,2,12,0.00
2013-8-18,88.7,71.8,57.0,66.5,61.5,56.8,99,73,42,30.20,30.10,10,2,10,0.00
2013-8-19,90.3,74.0,57.9,69.4,63.3,57.7,99,73,42,30.13,30.03,11,1,11,0.00
2013-8-20,90.9,75.9,61.3,73.5,67.3,60.8,99,77,49,30.14,30.06,9,1,9,0.00
2013-8-21,93.9,78.7,63.1,73.4,68.5,62.3,99,74,44,30.11,29.99,10,1,10,0.00
2013-8-22,76.3,71.1,65.1,72.4,69.5,64.9,99,95,83,30.13,29.98,19,4,19,0.48
2013-8-23,86.0,73.2,63.5,71.7,63.3,56.9,99,74,44,30.17,30.08,12,4,12,0.01
2013-8-24,91.6,74.2,58.8,65.6,60.9,56.7,96,67,37,30.27,30.16,8,1,8,0.00
2013-8-25,92.3,75.6,57.9,69.5,64.4,57.7,99,73,43,30.27,30.16,11,1,11,0.00
2013-8-26,91.8,77.6,64.6,76.3,70.2,63.4,99,80,55,30.18,30.03,12,2,12,0.00
2013-8-27,96.4,83.8,72.3,77.7,73.9,70.5,97,74,45,30.03,29.86,14,4,14,0.00
2013-8-28,82.2,76.4,70.5,75.7,71.6,67.6,99,86,65,30.03,29.85,15,7,15,0.00
2013-8-29,92.1,77.8,68.7,80.8,70.9,65.2,99,82,48,30.08,29.98,11,3,11,0.00
2013-8-30,98.2,80.0,65.7,76.8,71.3,65.4,99,78,47,29.99,29.78,23,3,42,0.22
2013-8-31,78.8,71.8,68.7,75.4,70.9,68.5,99,97,87,29.87,29.77,14,3,14,0.32
2013-9-1,88.7,75.4,67.6,75.7,71.4,67.4,99,89,59,29.81,29.73,14,2,14,0.00
2013-9-2,79.2,71.4,62.4,71.7,65.9,58.4,99,84,63,29.97,29.77,16,6,16,0.00
2013-9-3,79.5,65.7,56.7,62.7,59.5,56.4,99,83,49,30.08,29.96,11,2,11,0.00
2013-9-4,88.0,69.2,51.6,66.9,58.7,51.3,99,73,37,30.13,30.04,12,2,12,0.00
2013-9-5,81.3,67.7,57.2,65.6,58.4,50.9,99,75,45,30.23,30.10,14,3,14,0.00
2013-9-6,90.0,70.9,54.5,68.4,59.5,50.9,95,71,41,30.23,30.03,7,1,7,0.00
2013-9-7,90.9,74.3,61.0,72.5,65.9,60.4,99,78,40,30.04,29.89,12,2,12,0.00
2013-9-8,82.9,73.4,67.3,72.3,69.4,67.0,99,88,68,30.01,29.93,15,4,15,0.00
2013-9-9,97.9,80.8,64.8,76.8,71.7,64.5,99,77,48,29.99,29.85,10,2,10,0.00
2013-9-10,98.6,84.7,71.6,73.4,69.4,64.0,97,64,34,30.04,29.91,22,4,22,0.00
2013-9-11,97.5,79.8,70.2,74.3,71.5,66.6,98,80,39,30.06,29.96,20,4,20,0.21
2013-9-12,86.4,73.4,64.0,71.6,64.1,48.5,99,76,30,30.04,29.89,27,6,27,0.01
2013-9-13,66.9,59.6,47.8,56.7,50.6,45.9,99,73,49,30.14,30.03,26,8,26,0.00
2013-9-14,77.2,58.3,41.2,61.0,44.6,35.7,99,68,26,30.19,30.04,8,1,8,0.00
2013-9-15,69.6,58.0,47.5,61.3,54.5,45.7,99,89,65,30.13,29.98,6,1,6,0.14
2013-9-16,67.8,59.1,51.6,57.3,54.2,49.6,99,85,57,30.32,30.13,15,6,15,0.00
2013-9-17,75.4,59.7,46.0,56.4,52.0,45.2,99,78,48,30.33,30.12,10,1,10,0.00
2013-9-18,86.2,68.4,57.4,70.6,61.5,53.2,99,81,50,30.12,29.94,25,1,25,2.28
2013-9-19,79.5,70.1,65.3,74.8,69.3,65.0,99,97,82,30.00,29.84,14,3,14,0.40
2013-9-20,77.2,70.2,60.6,74.2,66.4,54.4,99,88,73,29.86,29.77,17,4,17,0.07
2013-9-21,67.3,60.0,49.8,57.9,52.9,47.1,99,79,52,29.92,29.78,19,7,19,0.00
2013-9-22,69.8,56.9,48.4,61.7,49.6,47.1,99,79,53,30.05,29.92,14,4,14,0.00
2013-9-23,76.3,62.5,44.8,53.3,49.1,44.0,99,66,39,30.11,30.03,9,2,10,0.00
2013-9-24,74.5,74.5,74.5,51.8,51.8,51.8,45,45,45,30.03,30.03,1,1,3,0.00
2013-9-25,74.5,74.5,74.5,51.8,51.8,51.8,45,45,45,30.03,30.03,1,1,3,0.00
2013-9-26,84.6,72.0,55.6,60.9,53.8,49.2,97,56,33,30.03,29.89,8,1,8,0.00
2013-9-27,55.9,52.4,52.2,54.8,51.5,51.3,97,97,95,29.97,29.95,0,0,0,0.00
2013-9-28,52.2,52.2,52.2,51.3,51.3,51.3,97,97,97,29.96,29.96,0,0,0,0.00
2013-9-29,52.2,52.2,52.2,51.3,51.3,51.3,97,97,97,29.96,29.96,0,0,0,0.00
2013-9-30,79.2,67.3,55.8,60.0,55.5,46.7,99,69,41,29.93,29.83,9,2,9,0.30
2013-10-1,81.1,67.7,55.8,68.6,63.7,55.5,99,88,62,29.93,29.85,13,3,13,0.00
2013-10-2,85.6,70.4,60.6,68.9,62.1,53.8,99,78,44,30.02,29.91,10,2,10,0.00
2013-10-3,78.3,67.7,60.3,73.9,66.9,60.0,99,97,83,29.93,29.80,17,2,17,0.73
2013-10-4,88.7,72.1,63.0,75.1,68.9,62.1,99,91,59,29.93,29.85,8,2,8,0.01
2013-10-5,84.0,71.0,66.0,75.9,69.4,65.8,99,95,73,29.90,29.71,11,2,11,0.25
2013-10-6,66.9,56.9,43.5,66.7,52.1,43.0,99,86,53,29.73,29.62,17,4,17,0.38
2013-10-7,66.7,52.4,44.2,51.4,46.9,43.7,99,84,44,30.03,29.69,17,4,17,0.00
2013-10-8,80.4,58.0,43.5,59.8,49.7,43.0,99,78,34,30.13,30.03,6,0,6,0.00
2013-10-9,75.6,57.2,43.3,59.6,48.3,42.8,99,76,36,30.19,30.07,10,1,10,0.00
2013-10-10,79.2,59.4,45.1,60.5,51.5,44.3,99,79,38,30.11,29.99,8,0,8,0.00
2013-10-11,80.1,59.9,46.0,60.4,50.6,45.2,99,76,36,30.04,29.91,9,0,9,0.00
2013-10-12,78.8,62.6,50.4,66.6,57.4,49.9,99,85,54,30.09,29.91,15,2,15,0.01
2013-10-13,63.9,52.4,41.7,55.5,45.8,41.1,99,81,48,30.31,30.09,14,3,14,0.01
2013-10-14,67.5,52.1,39.9,50.1,45.3,39.5,99,80,45,30.31,30.08,14,2,14,0.00
2013-10-15,64.9,57.3,48.6,62.8,55.8,47.2,99,95,82,30.08,29.74,11,2,11,0.13
2013-10-16,55.6,50.5,43.0,50.1,47.4,42.5,99,89,78,29.87,29.80,14,3,14,0.00
2013-10-17,54.0,48.6,39.2,50.6,46.8,38.9,99,94,72,29.86,29.75,21,3,21,0.13
2013-10-18,55.9,44.4,36.7,48.1,41.7,35.9,99,91,73,29.89,29.78,14,3,14,0.01
2013-10-19,46.4,43.7,43.3,43.4,42.7,41.3,98,96,83,29.86,29.79,10,2,11,0.00
2013-10-20,58.1,44.6,43.3,46.0,43.1,42.8,98,95,63,29.94,29.79,12,2,12,0.02
2013-10-21,55.4,47.3,32.0,49.9,39.5,25.9,99,75,53,30.08,29.93,20,5,20,0.04
2013-10-22,46.8,36.0,29.5,38.3,31.7,25.9,99,86,46,30.10,30.00,12,2,12,0.13
2013-10-23,46.2,39.8,35.2,37.7,31.7,24.1,98,75,44,30.12,29.96,22,7,22,0.01
2013-10-24,44.2,39.3,36.1,33.3,28.0,22.0,85,65,44,30.38,30.11,21,6,21,0.00
2013-10-25,50.9,40.4,29.3,32.5,28.2,24.2,85,63,40,30.50,30.21,17,5,17,0.00
2013-10-26,55.8,46.1,38.1,39.7,33.2,29.1,80,61,47,30.22,29.96,28,7,28,0.00
2013-10-27,56.7,41.3,28.0,40.1,30.9,26.6,99,70,36,30.19,30.09,14,2,14,0.00
2013-10-28,61.9,43.8,29.3,46.1,38.1,29.1,99,83,40,30.44,30.17,11,3,11,0.00
2013-10-29,57.0,45.8,36.1,45.6,40.4,35.4,99,83,57,30.47,30.26,8,2,8,0.00
2013-10-30,64.0,53.7,41.4,63.2,52.1,41.1,99,95,82,30.26,26.99,14,1,14,0.79
2013-10-31,64.0,59.9,49.3,63.2,59.4,48.1,99,98,94,29.92,29.35,23,6,23,0.72
2013-11-1,52.3,47.6,45.3,47.9,43.8,40.5,99,87,67,29.85,29.50,28,7,28,0.13
2013-11-2,48.7,44.1,40.6,44.9,41.8,36.9,99,92,68,30.22,29.84,18,6,18,0.09
2013-11-3,54.0,43.8,37.2,46.2,40.0,36.5,99,88,58,30.42,30.22,10,2,10,0.07
2013-11-4,58.5,48.7,40.6,44.3,40.6,37.7,92,74,50,30.42,30.26,15,3,15,0.00
2013-11-5,57.2,53.3,49.8,53.0,47.5,44.1,98,81,72,30.40,30.12,7,2,7,0.00
2013-11-6,57.0,50.1,38.5,55.3,47.3,31.4,99,91,69,30.25,29.93,21,6,21,0.67
2013-11-7,47.1,38.4,31.6,34.1,28.7,24.1,91,69,46,30.35,30.24,21,6,21,0.00
2013-11-8,48.6,40.0,28.9,34.2,30.7,25.1,96,71,50,30.44,30.14,11,4,11,0.00
2013-11-9,60.8,51.0,43.7,41.7,36.6,26.1,70,58,43,30.20,30.00,30,10,30,0.00
2013-11-10,48.0,41.0,35.4,33.7,28.7,23.7,80,62,47,30.42,30.19,24,7,24,0.00
2013-11-11,47.7,44.0,41.4,39.2,36.5,32.2,83,75,62,30.33,30.21,14,4,14,0.01
2013-11-12,44.1,34.6,20.7,39.2,25.7,12.7,91,71,46,30.21,29.88,16,5,16,0.31
2013-11-13,40.3,28.7,16.7,22.4,17.7,12.2,87,65,39,29.88,29.51,13,4,13,0.01
2013-11-14,52.5,40.0,29.8,26.7,22.9,18.3,65,51,35,29.52,29.29,13,4,13,0.01
2013-11-15,52.3,43.3,36.7,36.8,30.8,25.0,80,62,43,29.34,29.28,8,3,11,0.00
2013-11-16,61.0,51.8,39.7,59.1,48.9,35.5,99,90,77,29.29,28.96,13,5,13,0.12
2013-11-17,68.0,61.9,52.7,63.8,59.3,43.9,99,91,64,28.96,28.55,34,8,34,0.66
2013-11-18,45.0,38.3,34.2,36.9,26.6,23.1,84,63,50,29.53,29.05,24,8,24,0.08
2013-11-19,45.9,36.0,28.4,29.4,26.1,22.1,83,68,48,29.65,29.53,15,3,15,0.00
2013-11-20,47.5,37.9,28.9,39.8,29.8,24.4,99,74,48,29.61,29.42,8,3,8,0.11
2013-11-21,50.7,45.9,40.1,46.8,43.5,39.1,99,92,76,29.50,29.43,8,2,8,0.40
2013-11-22,46.2,37.5,28.6,45.4,34.0,24.6,99,87,71,29.75,29.48,23,9,23,0.05
2013-11-23,28.9,24.6,20.8,24.7,11.5,4.2,84,58,43,29.92,29.69,27,12,27,0.21
2013-11-24,27.5,20.2,14.4,7.7,1.1,-8.3,57,44,22,29.98,29.69,15,5,17,0.00
2013-11-25,34.5,27.9,19.2,27.2,16.4,4.1,91,63,43,29.69,29.40,16,4,16,0.00
2013-11-26,36.3,30.2,24.1,28.7,22.5,13.4,88,73,53,29.41,29.29,31,6,31,0.09
2013-11-27,28.0,23.3,17.8,17.3,12.0,6.0,78,62,44,29.55,29.36,21,9,21,0.00
2013-11-28,36.1,28.2,21.9,18.7,12.5,8.3,66,52,37,29.76,29.48,17,4,17,0.00
2013-11-29,38.5,29.2,20.1,21.5,17.2,12.0,75,61,44,29.92,29.72,11,2,11,0.00
2013-11-30,51.6,37.8,28.2,30.1,25.5,20.4,77,62,43,29.72,29.37,13,3,13,0.00
2013-12-1,45.9,35.2,28.0,38.3,31.1,23.5,97,85,71,29.40,29.27,12,2,12,0.00
2013-12-2,44.6,36.2,27.5,34.8,29.9,25.8,98,80,50,29.28,29.08,11,2,11,0.08
2013-12-3,51.3,44.1,35.6,49.4,43.1,34.6,99,96,88,29.09,29.01,9,3,9,0.00
2013-12-4,58.3,51.6,45.1,57.6,50.7,43.3,99,97,87,29.09,28.87,21,4,21,0.02
2013-12-5,47.3,30.1,24.3,43.3,20.9,10.9,88,69,55,29.54,26.93,25,8,25,0.00
2013-12-6,24.8,22.2,16.3,14.6,10.4,3.1,67,60,52,29.79,29.50,15,7,15,0.00
2013-12-7,21.0,15.1,11.1,7.4,3.5,0.5,80,60,46,29.95,29.79,14,5,14,0.00
2013-12-8,26.4,21.9,12.0,24.0,14.7,7.0,91,74,57,29.86,29.24,15,4,17,0.00
2013-12-9,26.8,19.9,6.1,24.2,9.8,-9.9,91,65,43,29.53,29.23,21,8,21,0.00
2013-12-10,24.6,13.2,-1.5,8.2,-1.7,-13.5,66,51,44,29.59,29.34,27,7,27,0.13
2013-12-11,23.2,15.6,1.8,14.2,3.3,-12.7,77,59,35,29.85,29.57,16,6,16,0.00
2013-12-12,22.5,9.1,-5.8,7.6,-4.0,-16.8,76,55,39,29.84,29.52,17,3,17,0.00
2013-12-13,29.8,21.4,9.7,24.6,12.4,2.3,88,69,51,29.52,29.40,10,2,10,0.00
2013-12-14,29.3,27.3,25.5,25.8,23.5,21.1,92,86,77,29.41,29.16,20,7,20,0.00
2013-12-15,27.3,16.0,10.8,21.1,5.9,0.7,82,64,52,29.41,29.23,18,8,18,0.00
2013-12-16,26.4,17.9,9.3,17.1,9.1,1.9,87,69,48,29.44,29.31,8,2,8,0.00
2013-12-17,32.5,24.5,17.4,24.5,17.6,12.1,87,75,55,29.38,29.25,22,6,22,0.00
2013-12-18,37.4,25.7,13.3,29.6,13.4,5.2,74,60,47,29.49,29.17,16,5,16,0.00
2013-12-19,47.3,39.2,32.7,36.8,33.9,28.0,95,82,65,29.26,29.14,12,2,12,0.00
2013-12-20,38.1,31.9,0.0,36.8,36.8,36.8,95,79,95,29.93,29.14,0,0,0,0.00
2013-12-21,36.1,22.7,0.0,36.8,35.2,32.4,98,63,94,29.99,29.65,17,4,17,0.50
2013-12-22,36.0,32.6,27.3,34.5,31.0,21.4,98,94,78,30.25,29.70,16,3,16,0.08
2013-12-23,27.3,17.8,1.4,21.9,9.2,-10.2,83,69,49,30.58,30.25,0,0,0,0.01
2013-12-24,19.6,9.7,0.1,8.8,-1.3,-12.0,73,60,51,30.68,30.53,0,0,0,0.00
2013-12-25,27.9,24.5,18.5,24.8,17.5,8.4,88,74,60,30.53,30.24,0,0,0,0.00
2013-12-26,34.5,27.2,15.3,26.6,18.4,6.7,81,69,57,30.46,30.24,8,2,8,0.00
2013-12-27,44.8,35.6,26.1,33.0,28.8,22.5,94,76,58,30.46,30.26,14,3,14,0.04
2013-12-28,51.6,40.9,32.5,36.3,32.2,28.1,86,72,54,30.27,30.03,15,4,15,0.00
2013-12-29,37.4,30.5,17.4,32.3,24.3,8.2,93,78,66,30.29,29.93,27,4,27,0.05
2013-12-30,19.6,13.6,6.8,8.7,3.2,-2.7,74,63,51,30.45,30.29,0,0,0,0.00
2013-12-31,17.8,12.2,4.8,11.7,3.2,-4.1,78,67,50,30.50,30.30,0,0,0,0.00
2014-1-1,19.9,17.6,14.2,12.4,10.7,8.1,78,74,65,30.41,30.28,17,4,17,0.00
2014-1-2,19.2,15.3,10.6,11.3,7.0,0.9,78,70,45,30.28,29.93,27,8,27,0.00